Time;durP1;ratioP1;P1;durP2;ratioP2;P2;SDS_P1;SDS_P2;PMS_P1;PMS_P2;Temp;Humidity;BMP_temperature;BMP_pressure;BME280_temperature;BME280_humidity;BME280_pressure;Samples;Min_cycle;Max_cycle;Signal;HPM_P1;HPM_P2
2021/06/04 00:00:38;;;;;;;18.90;17.20;;;16.70;99.90;;;;;;5066046;28;20205;-46
2021/06/04 00:03:07;;;;;;;18.77;16.93;;;16.70;99.90;;;;;;5080087;28;20281;-49
2021/06/04 00:05:36;;;;;;;17.70;16.00;;;16.70;99.90;;;;;;5071139;28;20197;-46
2021/06/04 00:08:03;;;;;;;20.07;18.03;;;16.60;99.90;;;;;;5082114;28;20229;-48
2021/06/04 00:10:34;;;;;;;18.83;17.13;;;16.60;99.90;;;;;;5082437;28;20259;-51
2021/06/04 00:13:20;;;;;;;18.90;17.00;;;16.60;99.90;;;;;;5086885;28;20205;-47
2021/06/04 00:15:50;;;;;;;16.57;15.10;;;16.60;99.90;;;;;;5072885;28;20210;-48
2021/06/04 00:18:17;;;;;;;19.80;17.73;;;16.60;99.90;;;;;;5084806;28;21018;-54
2021/06/04 00:20:44;;;;;;;20.50;18.40;;;16.60;99.90;;;;;;5076192;28;20194;-46
2021/06/04 00:23:11;;;;;;;18.83;17.07;;;16.60;99.90;;;;;;5086292;28;20664;-53
2021/06/04 00:25:37;;;;;;;18.70;17.00;;;16.60;99.90;;;;;;5083154;28;20282;-47
2021/06/04 00:28:04;;;;;;;20.83;18.80;;;16.60;99.90;;;;;;5086364;28;20210;-44
2021/06/04 00:30:30;;;;;;;19.63;17.77;;;16.60;99.90;;;;;;5069502;28;23836;-49
2021/06/04 00:32:58;;;;;;;19.27;17.37;;;16.60;99.90;;;;;;5086418;28;20190;-47
2021/06/04 00:35:25;;;;;;;19.73;17.63;;;16.60;99.90;;;;;;5070131;28;20201;-50
2021/06/04 00:37:51;;;;;;;19.57;17.63;;;16.60;99.90;;;;;;5083606;28;20698;-51
2021/06/04 00:40:23;;;;;;;17.23;15.63;;;16.60;99.90;;;;;;5082506;28;20198;-45
2021/06/04 00:42:49;;;;;;;17.93;16.23;;;16.60;99.90;;;;;;5085409;28;20217;-50
2021/06/04 00:45:20;;;;;;;19.23;17.33;;;16.60;99.90;;;;;;5086056;28;20686;-48
2021/06/04 00:47:46;;;;;;;20.30;18.10;;;16.50;99.90;;;;;;5074243;28;20226;-49
2021/06/04 00:50:21;;;;;;;19.17;17.37;;;16.50;99.90;;;;;;5083701;28;20198;-46
2021/06/04 00:52:49;;;;;;;19.13;17.33;;;16.50;99.90;;;;;;5077620;28;20318;-48
2021/06/04 00:55:19;;;;;;;19.33;17.50;;;16.50;99.90;;;;;;5084583;28;20194;-51
2021/06/04 00:57:46;;;;;;;20.50;18.23;;;16.50;99.90;;;;;;5084108;28;20965;-48
2021/06/04 01:00:18;;;;;;;18.63;16.93;;;16.60;99.90;;;;;;5084964;28;20204;-48
2021/06/04 01:02:45;;;;;;;18.23;16.63;;;16.50;99.90;;;;;;5072385;28;24416;-51
2021/06/04 01:05:15;;;;;;;19.30;17.47;;;16.50;99.90;;;;;;5084232;28;20190;-55
2021/06/04 01:07:53;;;;;;;19.20;17.40;;;16.50;99.90;;;;;;5075405;28;20214;-45
2021/06/04 01:10:30;;;;;;;20.30;18.20;;;16.50;99.90;;;;;;5082780;28;20194;-54
2021/06/04 01:13:02;;;;;;;20.70;18.73;;;16.50;99.90;;;;;;5085919;28;20667;-48
2021/06/04 01:15:47;;;;;;;20.53;18.53;;;16.50;99.90;;;;;;5081613;28;20899;-49
2021/06/04 01:18:23;;;;;;;20.27;18.47;;;16.40;99.90;;;;;;5076405;28;20582;-49
2021/06/04 01:20:55;;;;;;;20.37;18.37;;;16.50;99.90;;;;;;5078320;28;20194;-48
2021/06/04 01:23:56;;;;;;;21.10;19.20;;;16.50;99.90;;;;;;5074539;28;20190;-48
2021/06/04 01:26:31;;;;;;;19.57;17.57;;;16.50;99.90;;;;;;5073949;28;20660;-51
2021/06/04 01:29:04;;;;;;;19.83;18.03;;;16.40;99.90;;;;;;5083214;28;20210;-48
2021/06/04 01:31:35;;;;;;;20.63;18.73;;;16.40;99.90;;;;;;5081587;28;20196;-50
2021/06/04 01:34:06;;;;;;;19.30;17.60;;;16.40;99.90;;;;;;5071305;28;20289;-51
2021/06/04 01:36:38;;;;;;;20.63;18.70;;;16.40;99.90;;;;;;5079614;28;20251;-49
2021/06/04 01:39:09;;;;;;;20.67;18.60;;;16.40;99.90;;;;;;5076973;28;20241;-49
2021/06/04 01:41:41;;;;;;;20.37;18.37;;;16.40;99.90;;;;;;5080441;28;20285;-47
2021/06/04 01:44:12;;;;;;;19.30;17.50;;;16.50;99.90;;;;;;5085474;28;20255;-50
2021/06/04 01:46:42;;;;;;;18.67;16.97;;;16.40;99.90;;;;;;5081931;28;20198;-47
2021/06/04 01:49:12;;;;;;;19.60;17.30;;;16.40;99.90;;;;;;5071786;28;20210;-48
2021/06/04 01:51:43;;;;;;;19.50;17.60;;;16.40;99.90;;;;;;5080360;28;20204;-46
2021/06/04 01:54:16;;;;;;;18.90;17.17;;;16.40;99.90;;;;;;5077222;28;20213;-49
2021/06/04 01:56:48;;;;;;;18.17;16.57;;;16.40;99.90;;;;;;5082611;28;20460;-49
2021/06/04 01:59:23;;;;;;;18.40;16.77;;;16.40;99.90;;;;;;5082654;28;20222;-48
2021/06/04 02:01:58;;;;;;;18.73;17.13;;;16.30;99.90;;;;;;5084994;28;20595;-49
2021/06/04 02:04:27;;;;;;;17.87;16.10;;;16.30;99.90;;;;;;5069832;28;20194;-56
2021/06/04 02:06:54;;;;;;;18.40;16.60;;;16.40;99.90;;;;;;5083652;28;20217;-49
2021/06/04 02:09:23;;;;;;;18.20;16.60;;;16.40;99.90;;;;;;5074021;28;20214;-53
2021/06/04 02:11:59;;;;;;;19.07;17.37;;;16.40;99.90;;;;;;5083351;28;20588;-46
2021/06/04 02:14:38;;;;;;;18.00;16.30;;;16.40;99.90;;;;;;5079324;28;20217;-49
2021/06/04 02:17:24;;;;;;;18.67;16.77;;;16.30;99.90;;;;;;5082446;28;20202;-50
2021/06/04 02:19:58;;;;;;;17.97;16.27;;;16.30;99.90;;;;;;5082910;28;20186;-51
2021/06/04 02:22:50;;;;;;;17.67;16.10;;;16.30;99.90;;;;;;5073967;28;20481;-46
2021/06/04 02:25:23;;;;;;;17.83;16.23;;;16.30;99.90;;;;;;5069626;28;20242;-49
2021/06/04 02:27:54;;;;;;;17.80;15.90;;;16.30;99.90;;;;;;5077447;28;20228;-49
2021/06/04 02:30:28;;;;;;;19.07;17.07;;;16.30;99.90;;;;;;5088121;28;20536;-54
2021/06/04 02:33:04;;;;;;;19.53;17.70;;;16.30;99.90;;;;;;5084725;28;20201;-52
2021/06/04 02:35:34;;;;;;;16.87;15.40;;;16.30;99.90;;;;;;5068725;28;20205;-46
2021/06/04 02:38:09;;;;;;;17.17;15.47;;;16.20;99.90;;;;;;5084298;28;20222;-46
2021/06/04 02:40:41;;;;;;;17.07;15.57;;;16.20;99.90;;;;;;5072388;28;20890;-47
2021/06/04 02:43:14;;;;;;;17.70;16.10;;;16.20;99.90;;;;;;5083580;28;20194;-49
2021/06/04 02:45:44;;;;;;;16.43;14.83;;;16.20;99.90;;;;;;5080085;28;20255;-46
2021/06/04 02:48:14;;;;;;;17.20;15.47;;;16.20;99.90;;;;;;5082093;28;20225;-49
2021/06/04 02:50:45;;;;;;;16.87;15.37;;;16.20;99.90;;;;;;5070127;28;20202;-52
2021/06/04 02:53:18;;;;;;;16.57;15.03;;;16.10;99.90;;;;;;5083364;28;20194;-47
2021/06/04 02:56:03;;;;;;;17.13;15.43;;;16.00;99.90;;;;;;5075059;28;20190;-47
2021/06/04 02:58:35;;;;;;;17.20;15.30;;;16.00;99.90;;;;;;5071017;28;20220;-50
2021/06/04 03:01:02;;;;;;;15.57;14.07;;;16.00;99.90;;;;;;5082654;28;20190;-49
2021/06/04 03:03:29;;;;;;;16.77;15.00;;;15.90;99.90;;;;;;5081141;28;20194;-49
2021/06/04 03:05:57;;;;;;;16.63;15.23;;;15.90;99.90;;;;;;5084124;28;20663;-50
2021/06/04 03:08:25;;;;;;;14.97;13.57;;;15.90;99.90;;;;;;5070857;28;20297;-46
2021/06/04 03:10:55;;;;;;;16.07;14.57;;;15.90;99.90;;;;;;5077903;28;20214;-49
2021/06/04 03:13:31;;;;;;;16.03;14.67;;;15.80;99.90;;;;;;5081754;28;20197;-51
2021/06/04 03:16:03;;;;;;;15.77;14.27;;;15.80;99.90;;;;;;5083566;28;20224;-53
2021/06/04 03:18:38;;;;;;;15.23;13.83;;;15.80;99.90;;;;;;5079998;28;20229;-45
2021/06/04 03:21:10;;;;;;;14.80;13.47;;;15.80;99.90;;;;;;5082989;28;20200;-46
2021/06/04 03:23:36;;;;;;;16.07;14.47;;;15.80;99.90;;;;;;5066999;28;20194;-49
2021/06/04 03:26:11;;;;;;;16.60;15.00;;;15.70;99.90;;;;;;5075040;28;20655;-47
2021/06/04 03:28:39;;;;;;;16.57;15.03;;;15.70;99.90;;;;;;5069771;28;20222;-51
2021/06/04 03:31:12;;;;;;;14.30;13.07;;;15.80;99.90;;;;;;5081352;28;20573;-47
2021/06/04 03:33:39;;;;;;;16.50;14.80;;;15.60;99.90;;;;;;5079079;28;20190;-48
2021/06/04 03:36:13;;;;;;;16.63;12.77;;;15.60;99.90;;;;;;5081478;28;20190;-52
2021/06/04 03:38:41;;;;;;;15.80;13.43;;;15.60;99.90;;;;;;5067210;28;20253;-47
2021/06/04 03:41:09;;;;;;;16.03;14.53;;;15.60;99.90;;;;;;5076140;28;20246;-49
2021/06/04 03:43:39;;;;;;;16.43;14.83;;;15.60;99.90;;;;;;5080949;28;20186;-48
2021/06/04 03:46:08;;;;;;;16.00;14.43;;;15.50;99.90;;;;;;5087249;28;20599;-47
2021/06/04 03:48:35;;;;;;;15.40;14.00;;;15.50;99.90;;;;;;5080887;28;20202;-48
2021/06/04 03:51:07;;;;;;;16.40;14.90;;;15.40;99.90;;;;;;5087110;28;20679;-52
2021/06/04 03:53:33;;;;;;;15.37;13.73;;;15.40;99.90;;;;;;5084322;28;20190;-48
2021/06/04 03:56:00;;;;;;;15.03;13.73;;;15.40;99.90;;;;;;5074705;28;20214;-48
2021/06/04 03:58:28;;;;;;;15.43;14.03;;;15.50;99.90;;;;;;5075966;28;20229;-50
2021/06/04 04:00:58;;;;;;;15.20;13.70;;;15.50;99.90;;;;;;5080692;28;20655;-47
2021/06/04 04:03:28;;;;;;;14.23;13.03;;;15.50;99.90;;;;;;5083442;28;20198;-49
2021/06/04 04:05:55;;;;;;;13.23;12.13;;;15.50;99.90;;;;;;5082489;28;20221;-47
2021/06/04 04:08:25;;;;;;;14.47;13.07;;;15.50;99.90;;;;;;5084378;28;20217;-50
2021/06/04 04:10:52;;;;;;;14.27;13.00;;;15.50;99.90;;;;;;5073492;28;20210;-50
2021/06/04 04:13:20;;;;;;;15.47;13.87;;;15.50;99.90;;;;;;5077103;28;20205;-50
2021/06/04 04:15:47;;;;;;;16.43;12.87;;;15.50;99.90;;;;;;5081486;28;20186;-46
2021/06/04 04:18:15;;;;;;;14.47;12.97;;;15.50;99.90;;;;;;5082873;28;20214;-49
2021/06/04 04:20:48;;;;;;;15.03;13.60;;;15.50;99.90;;;;;;5079903;28;20198;-49
2021/06/04 04:23:17;;;;;;;15.23;13.83;;;15.50;99.90;;;;;;5077718;28;20190;-45
2021/06/04 04:25:45;;;;;;;14.47;13.17;;;15.50;99.90;;;;;;5088630;28;20251;-51
2021/06/04 04:28:16;;;;;;;14.97;13.20;;;15.50;99.90;;;;;;5066889;28;20229;-49
2021/06/04 04:30:42;;;;;;;14.00;12.67;;;15.50;99.90;;;;;;5088174;28;20251;-51
2021/06/04 04:33:09;;;;;;;14.37;13.17;;;15.50;99.90;;;;;;5085024;28;20272;-55
2021/06/04 04:35:37;;;;;;;12.70;11.60;;;15.50;99.90;;;;;;5086039;28;20679;-48
2021/06/04 04:38:07;;;;;;;13.97;12.63;;;15.50;99.90;;;;;;5079562;28;20221;-50
2021/06/04 04:40:37;;;;;;;13.70;12.37;;;15.50;99.90;;;;;;5083334;28;20212;-49
2021/06/04 04:43:04;;;;;;;14.03;12.73;;;15.50;99.90;;;;;;5069796;28;20202;-50
2021/06/04 04:45:31;;;;;;;13.50;12.40;;;15.50;99.90;;;;;;5080872;28;20202;-47
2021/06/04 04:47:58;;;;;;;15.20;12.97;;;15.50;99.90;;;;;;5080812;28;20241;-48
2021/06/04 04:50:26;;;;;;;14.23;12.97;;;15.60;99.90;;;;;;5078535;28;20194;-51
2021/06/04 04:52:53;;;;;;;13.47;12.30;;;15.60;99.90;;;;;;5082684;28;20202;-49
2021/06/04 04:55:21;;;;;;;15.37;13.77;;;15.60;99.90;;;;;;5075040;28;20213;-49
2021/06/04 04:57:48;;;;;;;13.50;12.10;;;15.60;99.90;;;;;;5068748;28;20226;-47
2021/06/04 05:00:19;;;;;;;15.53;14.07;;;15.70;99.90;;;;;;5074267;28;20197;-49
2021/06/04 05:02:45;;;;;;;15.27;13.77;;;15.70;99.90;;;;;;5081052;28;20198;-46
2021/06/04 05:05:13;;;;;;;15.57;13.60;;;15.70;99.90;;;;;;5081787;28;20881;-47
2021/06/04 05:07:40;;;;;;;15.37;13.43;;;15.80;99.90;;;;;;5085630;28;20202;-47
2021/06/04 05:10:08;;;;;;;14.77;13.17;;;15.80;99.90;;;;;;5077150;28;20221;-54
2021/06/04 05:12:36;;;;;;;14.80;13.20;;;15.80;99.90;;;;;;5081557;28;20232;-48
2021/06/04 05:15:05;;;;;;;13.70;12.60;;;15.80;99.90;;;;;;5067004;28;20804;-50
2021/06/04 05:17:31;;;;;;;13.70;12.40;;;15.80;99.90;;;;;;5076255;28;20210;-52
2021/06/04 05:19:58;;;;;;;13.77;12.40;;;15.80;99.90;;;;;;5082336;28;20190;-52
2021/06/04 05:22:24;;;;;;;14.53;12.27;;;15.80;99.90;;;;;;5083227;28;20243;-46
2021/06/04 05:24:50;;;;;;;13.00;11.67;;;15.80;99.90;;;;;;5080688;28;20205;-46
2021/06/04 05:27:17;;;;;;;14.67;11.87;;;15.80;99.90;;;;;;5077286;28;20243;-51
2021/06/04 05:29:44;;;;;;;13.30;11.90;;;15.80;99.90;;;;;;5072079;28;20225;-50
2021/06/04 05:32:10;;;;;;;12.57;11.47;;;15.90;99.90;;;;;;5069200;28;20225;-50
2021/06/04 05:34:37;;;;;;;12.43;11.07;;;15.90;99.90;;;;;;5074369;28;20206;-49
2021/06/04 05:37:04;;;;;;;13.33;12.17;;;15.90;99.90;;;;;;5079560;28;20259;-49
2021/06/04 05:39:31;;;;;;;12.43;11.37;;;15.90;99.90;;;;;;5083598;28;20213;-48
2021/06/04 05:42:01;;;;;;;14.77;11.70;;;16.00;99.90;;;;;;5079960;28;20202;-50
2021/06/04 05:44:30;;;;;;;12.23;11.13;;;16.00;99.90;;;;;;5067040;28;22328;-51
2021/06/04 05:47:02;;;;;;;12.57;11.30;;;16.10;99.90;;;;;;5079922;28;20689;-57
2021/06/04 05:49:29;;;;;;;12.23;11.07;;;16.10;99.90;;;;;;5073458;28;21009;-49
2021/06/04 05:51:57;;;;;;;12.90;11.67;;;16.10;99.90;;;;;;5082047;28;20706;-53
2021/06/04 05:54:24;;;;;;;11.77;10.77;;;16.20;99.90;;;;;;5074225;28;20201;-47
2021/06/04 05:56:51;;;;;;;12.40;11.20;;;16.20;99.90;;;;;;5078110;28;20259;-47
2021/06/04 05:59:17;;;;;;;13.23;11.23;;;16.30;99.90;;;;;;5073949;28;20889;-47
2021/06/04 06:01:46;;;;;;;12.80;11.70;;;16.30;99.90;;;;;;5070028;28;20210;-52
2021/06/04 06:04:14;;;;;;;12.07;10.90;;;16.40;99.90;;;;;;5066872;28;20226;-53
2021/06/04 06:06:41;;;;;;;12.13;11.03;;;16.40;99.90;;;;;;5084465;28;20213;-46
2021/06/04 06:09:07;;;;;;;12.53;11.40;;;16.40;99.90;;;;;;5079091;28;20229;-56
2021/06/04 06:11:34;;;;;;;12.60;11.50;;;16.50;99.90;;;;;;5084272;28;20256;-49
2021/06/04 06:14:01;;;;;;;12.93;11.73;;;16.60;99.90;;;;;;5076753;28;20748;-55
2021/06/04 06:16:28;;;;;;;13.47;12.20;;;16.60;99.90;;;;;;5072759;28;20202;-52
2021/06/04 06:18:55;;;;;;;12.07;10.87;;;16.80;99.90;;;;;;5077433;28;20240;-46
2021/06/04 06:21:23;;;;;;;12.17;10.90;;;16.80;99.90;;;;;;5073596;28;20218;-56
2021/06/04 06:23:49;;;;;;;12.10;11.10;;;16.90;99.90;;;;;;5083597;28;20671;-53
2021/06/04 06:26:19;;;;;;;12.90;10.93;;;17.00;99.90;;;;;;5080948;28;20193;-52
2021/06/04 06:28:46;;;;;;;12.80;11.30;;;17.20;99.90;;;;;;5077039;28;20225;-52
2021/06/04 06:31:15;;;;;;;11.87;10.70;;;17.30;99.90;;;;;;5065712;28;20293;-48
2021/06/04 06:33:42;;;;;;;9.67;8.77;;;17.30;99.90;;;;;;5077713;28;20597;-53
2021/06/04 06:36:10;;;;;;;11.87;10.40;;;17.40;99.90;;;;;;5069312;28;20202;-51
2021/06/04 06:38:39;;;;;;;11.70;10.57;;;17.60;99.90;;;;;;5071723;28;20228;-51
2021/06/04 06:41:08;;;;;;;10.87;9.97;;;17.60;99.90;;;;;;5072526;28;20648;-48
2021/06/04 06:43:37;;;;;;;10.03;9.03;;;17.70;99.90;;;;;;5070557;28;20201;-51
2021/06/04 06:46:04;;;;;;;11.63;10.20;;;17.80;99.90;;;;;;5082547;28;20212;-49
2021/06/04 06:48:30;;;;;;;14.77;9.53;;;17.90;99.90;;;;;;5069050;28;20221;-50
2021/06/04 06:50:57;;;;;;;9.83;8.93;;;18.00;99.90;;;;;;5074207;28;20194;-51
2021/06/04 06:53:25;;;;;;;9.93;9.00;;;18.10;99.90;;;;;;5073562;28;20200;-47
2021/06/04 06:55:55;;;;;;;10.43;8.87;;;18.20;99.90;;;;;;5073035;28;21740;-48
2021/06/04 06:58:24;;;;;;;9.77;8.80;;;18.20;99.90;;;;;;5080711;28;20285;-50
2021/06/04 07:00:52;;;;;;;10.20;9.27;;;18.40;99.90;;;;;;5068268;28;20202;-52
2021/06/04 07:03:23;;;;;;;13.70;8.97;;;18.50;99.90;;;;;;5066237;28;20205;-46
2021/06/04 07:05:50;;;;;;;10.77;9.30;;;18.50;99.90;;;;;;5068858;28;20210;-47
2021/06/04 07:08:16;;;;;;;9.10;8.17;;;18.50;99.90;;;;;;5077724;28;20217;-51
2021/06/04 07:10:43;;;;;;;9.40;8.60;;;18.60;99.90;;;;;;5070082;28;20209;-50
2021/06/04 07:13:13;;;;;;;10.37;9.47;;;18.70;99.90;;;;;;5075468;28;20210;-46
2021/06/04 07:15:40;;;;;;;9.60;8.80;;;18.80;99.90;;;;;;5070454;28;20596;-50
2021/06/04 07:18:07;;;;;;;8.77;7.80;;;18.80;99.90;;;;;;5075562;28;20224;-49
2021/06/04 07:20:36;;;;;;;8.27;7.67;;;18.90;99.90;;;;;;5062849;28;20206;-56
2021/06/04 07:23:05;;;;;;;9.03;8.20;;;19.10;99.90;;;;;;5075988;28;20216;-49
2021/06/04 07:25:35;;;;;;;8.60;7.90;;;19.20;99.90;;;;;;5080050;28;20197;-55
2021/06/04 07:28:02;;;;;;;9.07;7.53;;;19.30;99.90;;;;;;5079257;28;20209;-50
2021/06/04 07:30:33;;;;;;;8.13;7.40;;;19.40;99.90;;;;;;5078213;28;20243;-49
2021/06/04 07:33:01;;;;;;;8.17;7.43;;;19.40;99.90;;;;;;5074616;28;20208;-47
2021/06/04 07:35:30;;;;;;;10.20;7.63;;;19.50;99.90;;;;;;5068766;28;20262;-52
2021/06/04 07:37:56;;;;;;;8.00;7.20;;;19.50;99.90;;;;;;5069353;28;20272;-53
2021/06/04 07:40:28;;;;;;;7.07;6.57;;;19.60;99.90;;;;;;5080120;28;20678;-48
2021/06/04 07:42:54;;;;;;;8.03;7.33;;;19.80;99.90;;;;;;5076093;28;20201;-54
2021/06/04 07:45:25;;;;;;;8.80;8.10;;;19.80;99.90;;;;;;5081030;28;20663;-47
2021/06/04 07:47:52;;;;;;;8.10;7.40;;;19.80;99.90;;;;;;5068787;28;20220;-51
2021/06/04 07:50:20;;;;;;;8.23;7.37;;;19.80;99.90;;;;;;5078783;28;20205;-53
2021/06/04 07:52:46;;;;;;;7.40;6.80;;;19.80;99.90;;;;;;5060569;28;24348;-52
2021/06/04 07:55:19;;;;;;;8.10;7.30;;;19.80;99.90;;;;;;5081772;28;20189;-54
2021/06/04 07:57:45;;;;;;;7.50;6.80;;;19.80;99.90;;;;;;5073752;28;20893;-51
2021/06/04 08:00:18;;;;;;;8.17;7.47;;;19.90;99.90;;;;;;5072366;28;20202;-50
2021/06/04 08:02:44;;;;;;;8.17;7.47;;;20.00;99.90;;;;;;5066345;28;20208;-50
2021/06/04 08:05:14;;;;;;;9.17;7.50;;;20.00;99.90;;;;;;5069692;28;20202;-49
2021/06/04 08:07:40;;;;;;;7.53;6.90;;;20.10;99.90;;;;;;5061190;28;20760;-48
2021/06/04 08:10:08;;;;;;;7.03;6.50;;;20.20;99.90;;;;;;5082023;28;20252;-49
2021/06/04 08:12:34;;;;;;;8.07;7.13;;;20.30;99.90;;;;;;5079161;28;20194;-52
2021/06/04 08:15:04;;;;;;;8.00;7.30;;;20.40;99.90;;;;;;5080556;28;20202;-47
2021/06/04 08:17:30;;;;;;;8.60;6.80;;;20.50;99.90;;;;;;5075161;28;20210;-52
2021/06/04 08:19:56;;;;;;;8.10;7.40;;;20.60;99.90;;;;;;5075306;28;20210;-47
2021/06/04 08:22:23;;;;;;;7.27;6.53;;;20.70;99.90;;;;;;5069715;28;20590;-49
2021/06/04 08:24:50;;;;;;;6.70;6.13;;;20.80;99.90;;;;;;5072559;28;20293;-47
2021/06/04 08:27:19;;;;;;;7.43;6.30;;;20.90;99.90;;;;;;5080594;28;20201;-52
2021/06/04 08:29:48;;;;;;;8.50;7.40;;;21.00;99.90;;;;;;5076121;28;20305;-55
2021/06/04 08:32:15;;;;;;;7.47;6.87;;;21.10;99.90;;;;;;5079514;28;20221;-50
2021/06/04 08:34:42;;;;;;;8.63;6.77;;;21.30;99.90;;;;;;5072819;28;20891;-50
2021/06/04 08:37:08;;;;;;;7.60;6.80;;;21.30;99.90;;;;;;5069707;28;20590;-49
2021/06/04 08:39:39;;;;;;;7.27;6.70;;;21.40;99.90;;;;;;5074117;28;20221;-55
2021/06/04 08:42:20;;;;;;;12.93;7.40;;;21.40;99.90;;;;;;5085650;28;20198;-51
2021/06/04 08:44:54;;;;;;;6.57;5.60;;;21.50;99.90;;;;;;5076357;28;20204;-51
2021/06/04 08:47:22;;;;;;;6.50;6.03;;;21.70;99.90;;;;;;5080885;28;20586;-52
2021/06/04 08:50:14;;;;;;;6.60;5.93;;;21.80;99.90;;;;;;5068849;28;20202;-54
2021/06/04 08:52:44;;;;;;;6.37;5.87;;;22.00;99.90;;;;;;5064178;28;20210;-54
2021/06/04 08:55:27;;;;;;;7.23;6.47;;;22.10;99.90;;;;;;5072493;28;20229;-53
2021/06/04 08:57:58;;;;;;;8.60;7.57;;;22.10;99.90;;;;;;5083894;28;20218;-54
2021/06/04 09:00:29;;;;;;;7.47;6.63;;;22.20;99.90;;;;;;5076789;28;20198;-49
2021/06/04 09:03:02;;;;;;;6.78;5.68;;;22.20;99.90;;;;;;5076361;28;20217;-55
2021/06/04 09:05:37;;;;;;;6.50;6.00;;;22.30;99.90;;;;;;5073956;28;20190;-54
2021/06/04 09:08:04;;;;;;;7.10;6.50;;;22.40;99.90;;;;;;5069731;28;20232;-55
2021/06/04 09:10:45;;;;;;;8.73;5.88;;;22.60;99.90;;;;;;5068898;28;20218;-55
2021/06/04 09:13:13;;;;;;;6.20;5.65;;;22.60;99.90;;;;;;5082330;28;20212;-56
2021/06/04 09:15:41;;;;;;;5.90;5.40;;;22.70;99.90;;;;;;5080405;28;20197;-49
2021/06/04 09:18:12;;;;;;;6.13;5.15;;;22.90;99.90;;;;;;5084903;28;20636;-51
2021/06/04 09:20:49;;;;;;;5.43;5.00;;;22.90;99.90;;;;;;5076603;28;20966;-47
2021/06/04 09:23:21;;;;;;;5.60;5.10;;;23.00;99.90;;;;;;5076255;28;20259;-54
2021/06/04 09:25:48;;;;;;;5.45;5.07;;;23.10;99.90;;;;;;5068733;28;20213;-53
2021/06/04 09:28:26;;;;;;;5.90;5.32;;;23.20;99.90;;;;;;5075772;28;20222;-52
2021/06/04 09:30:53;;;;;;;6.35;5.20;;;23.20;99.90;;;;;;5080359;28;20272;-50
2021/06/04 09:33:25;;;;;;;6.53;5.50;;;23.30;99.90;;;;;;5068366;28;20190;-48
2021/06/04 09:36:03;;;;;;;6.40;5.90;;;23.30;99.90;;;;;;5076871;28;20245;-52
2021/06/04 09:38:34;;;;;;;8.75;4.88;;;23.40;99.90;;;;;;5071160;28;20279;-51
2021/06/04 09:41:31;;;;;;;6.13;5.60;;;23.40;99.90;;;;;;5070509;28;20255;-49
2021/06/04 09:44:26;;;;;;;5.97;5.45;;;23.40;99.90;;;;;;5076467;28;20210;-51
2021/06/04 09:47:05;;;;;;;5.47;4.80;;;23.50;99.90;;;;;;5081397;28;20254;-53
2021/06/04 09:49:41;;;;;;;6.03;5.47;;;23.60;99.90;;;;;;5075849;28;22643;-49
2021/06/04 09:52:25;;;;;;;7.60;5.07;;;23.70;99.90;;;;;;5078529;28;20197;-51
2021/06/04 09:55:13;;;;;;;5.82;4.57;;;23.80;99.90;;;;;;5083748;28;20204;-46
2021/06/04 09:58:03;;;;;;;5.63;5.22;;;23.80;99.90;;;;;;5072850;28;20267;-51
2021/06/04 10:00:33;;;;;;;4.53;4.18;;;23.90;99.90;;;;;;5077100;28;20194;-52
2021/06/04 10:03:19;;;;;;;6.78;4.93;;;23.90;99.90;;;;;;5075483;28;20256;-51
2021/06/04 10:05:46;;;;;;;5.22;4.90;;;24.00;97.80;;;;;;5074598;28;20213;-51
2021/06/04 10:08:23;;;;;;;5.97;5.38;;;24.00;99.60;;;;;;5071844;28;20229;-48
2021/06/04 10:11:05;;;;;;;5.88;5.18;;;24.00;99.80;;;;;;5078129;28;20205;-54
2021/06/04 10:13:40;;;;;;;5.57;5.07;;;24.10;99.40;;;;;;5067568;28;20182;-51
2021/06/04 10:16:27;;;;;;;7.88;5.35;;;24.10;98.60;;;;;;5080408;28;20547;-54
2021/06/04 10:18:54;;;;;;;4.90;4.50;;;24.20;98.50;;;;;;5080337;28;20210;-53
2021/06/04 10:21:28;;;;;;;5.13;4.28;;;24.40;98.60;;;;;;5071500;28;20271;-55
2021/06/04 10:23:56;;;;;;;4.55;4.25;;;24.60;97.00;;;;;;5080138;28;20201;-54
2021/06/04 10:26:26;;;;;;;5.13;4.28;;;24.70;96.30;;;;;;5080703;28;20212;-51
2021/06/04 10:28:56;;;;;;;5.85;5.43;;;24.60;95.20;;;;;;5062922;28;20221;-51
2021/06/04 10:31:55;;;;;;;6.13;5.63;;;24.60;96.70;;;;;;5072962;28;20808;-53
2021/06/04 10:34:42;;;;;;;5.88;5.38;;;24.50;95.40;;;;;;4997153;28;20200;-52
2021/06/04 10:37:15;;;;;;;5.50;5.00;;;24.50;95.80;;;;;;5067347;28;20218;-54
2021/06/04 10:39:47;;;;;;;5.55;5.15;;;24.50;96.30;;;;;;5078090;28;20230;-55
2021/06/04 10:42:20;;;;;;;5.57;5.18;;;24.60;97.50;;;;;;5069138;28;20193;-50
2021/06/04 10:44:59;;;;;;;6.40;5.65;;;24.70;98.70;;;;;;5069474;28;20197;-52
2021/06/04 10:47:34;;;;;;;6.05;5.43;;;24.90;98.60;;;;;;5075321;28;20194;-54
2021/06/04 10:50:09;;;;;;;6.07;5.43;;;24.90;98.10;;;;;;5072264;28;20212;-54
2021/06/04 10:52:49;;;;;;;5.47;5.07;;;24.90;97.60;;;;;;5081505;28;20573;-52
2021/06/04 10:55:20;;;;;;;7.18;4.90;;;24.90;99.60;;;;;;5074538;28;20197;-52
2021/06/04 10:57:49;;;;;;;5.47;5.10;;;24.80;99.90;;;;;;5081825;28;20699;-51
2021/06/04 11:00:22;;;;;;;7.22;5.40;;;24.80;99.90;;;;;;5058730;28;20222;-52
2021/06/04 11:03:07;;;;;;;5.43;5.10;;;24.90;99.10;;;;;;5066329;28;20205;-51
2021/06/04 11:05:50;;;;;;;5.72;5.32;;;;;;;;;;5073906;28;20194;-54
2021/06/04 11:08:47;;;;;;;5.68;5.28;;;25.20;98.10;;;;;;5069092;28;20217;-52
2021/06/04 11:11:39;;;;;;;6.88;5.35;;;25.20;99.20;;;;;;5057504;28;20210;-50
2021/06/04 11:14:26;;;;;;;5.93;5.32;;;25.30;99.70;;;;;;5065577;28;20246;-53
2021/06/04 11:17:00;;;;;;;8.55;5.93;;;25.60;97.50;;;;;;5072945;28;20216;-48
2021/06/04 11:19:35;;;;;;;6.00;5.60;;;25.60;98.50;;;;;;5077714;28;20216;-53
2021/06/04 11:22:06;;;;;;;8.35;6.03;;;25.60;97.30;;;;;;5076693;28;20602;-54
2021/06/04 11:24:41;;;;;;;6.00;5.50;;;25.70;99.40;;;;;;5078760;28;20216;-52
2021/06/04 11:27:11;;;;;;;5.75;5.45;;;25.90;97.20;;;;;;5071804;28;20213;-53
2021/06/04 11:29:40;;;;;;;5.97;5.38;;;26.00;97.00;;;;;;5063799;28;20229;-51
2021/06/04 11:32:12;;;;;;;6.18;5.63;;;26.00;96.90;;;;;;5070776;28;20202;-55
2021/06/04 11:34:44;;;;;;;5.43;5.03;;;26.10;96.80;;;;;;5077935;28;20201;-51
2021/06/04 11:37:14;;;;;;;4.80;4.40;;;26.20;97.60;;;;;;5073732;28;20284;-51
2021/06/04 11:39:44;;;;;;;4.55;3.90;;;26.40;96.00;;;;;;5072694;28;20742;-50
2021/06/04 11:42:13;;;;;;;4.63;4.32;;;26.60;93.00;;;;;;5071350;28;20233;-50
2021/06/04 11:44:44;;;;;;;5.00;3.97;;;26.60;92.40;;;;;;5076540;28;20202;-50
2021/06/04 11:47:38;;;;;;;4.57;3.72;;;26.50;91.10;;;;;;5057019;28;20238;-49
2021/06/04 11:50:10;;;;;;;4.30;3.90;;;26.40;88.70;;;;;;5075042;28;20198;-51
2021/06/04 11:52:39;;;;;;;5.05;4.53;;;26.50;90.20;;;;;;5080259;28;20247;-53
2021/06/04 11:55:13;;;;;;;4.13;3.83;;;26.50;89.80;;;;;;5075009;28;20887;-52
2021/06/04 11:57:47;;;;;;;4.45;3.67;;;26.40;88.10;;;;;;5074193;28;20209;-53
2021/06/04 12:00:47;;;;;;;4.57;4.20;;;26.50;90.00;;;;;;5081086;28;20257;-52
2021/06/04 12:03:35;;;;;;;4.70;4.30;;;26.60;83.60;;;;;;5005655;28;20749;-52
2021/06/04 12:06:34;;;;;;;5.38;4.97;;;26.50;86.00;;;;;;5014423;28;20215;-47
2021/06/04 12:09:00;;;;;;;5.68;5.18;;;26.40;90.00;;;;;;5063533;28;20333;-53
2021/06/04 12:11:33;;;;;;;6.38;5.22;;;26.30;92.40;;;;;;5077506;28;20718;-52
2021/06/04 12:14:19;;;;;;;7.10;4.57;;;26.10;92.80;;;;;;5074571;28;20193;-52
2021/06/04 12:17:06;;;;;;;5.13;4.75;;;26.00;93.50;;;;;;5064595;28;20703;-54
2021/06/04 12:19:36;;;;;;;5.47;4.50;;;25.90;92.00;;;;;;5070134;28;20967;-52
2021/06/04 12:22:09;;;;;;;4.78;4.38;;;25.90;91.10;;;;;;5082614;28;20194;-48
2021/06/04 12:25:00;;;;;;;7.45;4.60;;;25.90;91.90;;;;;;5085606;28;20220;-54
2021/06/04 12:28:06;;;;;;;5.07;4.60;;;25.90;93.90;;;;;;5081690;28;20197;-52
2021/06/04 12:31:11;;;;;;;5.40;5.00;;;25.70;94.60;;;;;;5078539;28;20282;-51
2021/06/04 12:33:53;;;;;;;5.03;4.63;;;25.80;94.30;;;;;;5057747;28;20217;-52
2021/06/04 12:37:04;;;;;;;7.45;6.85;;;25.80;96.70;;;;;;5075367;28;20247;-52
2021/06/04 12:39:50;;;;;;;5.95;5.45;;;25.70;99.90;;;;;;5083018;28;20221;-52
2021/06/04 12:42:32;;;;;;;6.50;5.50;;;25.60;98.50;;;;;;5076565;28;20284;-53
2021/06/04 12:45:02;;;;;;;6.47;4.97;;;25.70;97.60;;;;;;5074452;28;20205;-51
2021/06/04 12:47:32;;;;;;;6.28;5.78;;;25.70;99.10;;;;;;5070674;28;20272;-53
2021/06/04 12:50:11;;;;;;;9.18;6.20;;;25.70;99.90;;;;;;5075639;28;20186;-54
2021/06/04 12:52:39;;;;;;;6.25;5.85;;;25.60;99.90;;;;;;5074099;28;20898;-51
2021/06/04 12:55:23;;;;;;;6.40;6.00;;;25.60;99.40;;;;;;5083696;28;20182;-51
2021/06/04 12:57:51;;;;;;;7.07;6.43;;;25.60;99.90;;;;;;5077804;28;20222;-53
2021/06/04 13:00:24;;;;;;;6.30;5.70;;;25.60;99.90;;;;;;5079433;28;20714;-50